createdAt,value
2023-05-23T00:02:30.840Z,14.77
2023-05-23T00:05:34.412Z,15.63
2023-05-23T00:08:39.334Z,13.80
2023-05-23T00:11:45.368Z,14.27
2023-05-23T00:14:49.586Z,14.40
2023-05-23T00:17:53.208Z,13.47
2023-05-23T00:20:57.511Z,13.67
2023-05-23T00:24:04.676Z,13.83
2023-05-23T00:27:08.223Z,12.97
2023-05-23T00:30:12.789Z,12.30
2023-05-23T00:33:16.388Z,11.43
2023-05-23T00:36:19.981Z,12.30
2023-05-23T00:39:25.297Z,11.53
2023-05-23T00:42:28.803Z,10.57
2023-05-23T00:45:32.370Z,12.37
2023-05-23T00:48:38.444Z,11.37
2023-05-23T00:51:43.333Z,11.23
2023-05-23T00:54:48.423Z,12.83
2023-05-23T00:57:55.814Z,12.43
2023-05-23T01:01:00.018Z,12.07
2023-05-23T01:04:04.781Z,11.87
2023-05-23T01:07:08.545Z,10.93
2023-05-23T01:10:14.880Z,10.93
2023-05-23T01:13:30.042Z,9.73
2023-05-23T01:16:48.959Z,9.83
2023-05-23T01:20:10.073Z,8.90
2023-05-23T01:23:55.828Z,8.83
2023-05-23T01:27:20.502Z,7.53
2023-05-23T01:30:28.357Z,7.83
2023-05-23T01:33:34.925Z,7.53
2023-05-23T01:36:43.677Z,7.63
2023-05-23T01:39:47.343Z,7.57
2023-05-23T01:42:51.642Z,7.80
2023-05-23T01:45:58.654Z,7.27
2023-05-23T01:49:04.923Z,8.47
2023-05-23T01:52:10.615Z,8.97
2023-05-23T01:55:22.810Z,9.23
2023-05-23T01:58:26.620Z,8.33
2023-05-23T02:01:31.806Z,9.10
2023-05-23T02:04:37.368Z,8.77
2023-05-23T02:07:41.109Z,9.10
2023-05-23T02:10:44.648Z,8.30
2023-05-23T02:13:48.228Z,8.30
2023-05-23T02:16:54.057Z,8.60
2023-05-23T02:19:57.925Z,8.93
2023-05-23T02:23:01.492Z,8.87
2023-05-23T02:26:05.056Z,9.73
2023-05-23T02:29:08.809Z,10.10
2023-05-23T02:32:13.752Z,10.40
2023-05-23T02:35:17.454Z,9.53
2023-05-23T02:38:21.091Z,11.13
2023-05-23T02:41:24.693Z,13.43
2023-05-23T02:44:28.294Z,14.47
2023-05-23T02:47:33.256Z,16.20
2023-05-23T02:50:36.722Z,15.53
2023-05-23T02:53:40.456Z,15.97
2023-05-23T02:56:44.108Z,15.87
2023-05-23T02:59:47.627Z,17.80
2023-05-23T03:02:52.873Z,18.83
2023-05-23T03:05:56.581Z,17.53
2023-05-23T03:09:00.224Z,19.97
2023-05-23T03:12:03.732Z,20.23
2023-05-23T03:15:08.608Z,21.70
2023-05-23T03:18:13.616Z,21.13
2023-05-23T03:21:17.404Z,22.67
2023-05-23T03:24:20.925Z,22.30
2023-05-23T03:27:24.409Z,21.13
2023-05-23T03:30:28.084Z,22.17
2023-05-23T03:33:32.905Z,24.20
2023-05-23T03:36:39.308Z,24.90
2023-05-23T03:39:42.841Z,26.13
2023-05-23T03:42:46.421Z,27.03
2023-05-23T03:45:50.135Z,28.90
2023-05-23T03:48:55.127Z,27.97
2023-05-23T03:51:58.618Z,27.70
2023-05-23T03:55:02.336Z,28.97
2023-05-23T03:58:06.298Z,31.10
2023-05-23T04:01:10.796Z,29.27
2023-05-23T04:04:17.310Z,28.20
2023-05-23T04:07:20.933Z,29.30
2023-05-23T04:10:24.738Z,29.70
2023-05-23T04:13:28.479Z,28.47
2023-05-23T04:16:33.346Z,30.70
2023-05-23T04:19:38.714Z,27.03
2023-05-23T04:22:42.401Z,25.93
2023-05-23T04:25:46.136Z,26.80
2023-05-23T04:28:50.247Z,24.57
2023-05-23T04:31:55.021Z,24.83
2023-05-23T04:35:02.258Z,27.00
2023-05-23T04:38:06.140Z,27.23
2023-05-23T04:41:10.756Z,26.57
2023-05-23T04:44:15.041Z,27.10
2023-05-23T04:47:19.151Z,26.43
2023-05-23T04:50:24.192Z,22.97
2023-05-23T04:53:27.792Z,22.60
2023-05-23T04:56:31.496Z,21.30
2023-05-23T04:59:35.052Z,21.17
2023-05-23T05:02:39.134Z,19.17
2023-05-23T05:05:44.309Z,19.60
2023-05-23T05:08:47.860Z,19.37
2023-05-23T05:11:51.444Z,18.20
2023-05-23T05:14:55.132Z,17.97
2023-05-23T05:17:58.764Z,17.27
2023-05-23T05:21:03.745Z,19.03
2023-05-23T05:24:09.714Z,19.33
2023-05-23T05:27:13.828Z,20.10
2023-05-23T05:30:17.676Z,23.13
2023-05-23T05:33:23.709Z,25.80
2023-05-23T05:36:28.663Z,25.73
2023-05-23T05:39:32.237Z,25.23
2023-05-23T05:42:36.015Z,21.83
2023-05-23T05:45:40.116Z,21.63
2023-05-23T05:48:43.632Z,20.07
2023-05-23T05:51:48.505Z,17.67
2023-05-23T05:54:52.108Z,15.83
2023-05-23T05:57:55.699Z,17.60
2023-05-23T06:00:59.921Z,14.93
2023-05-23T06:04:03.587Z,14.47
2023-05-23T06:07:08.733Z,15.60
2023-05-23T06:10:13.986Z,16.37
2023-05-23T06:13:17.885Z,14.67
2023-05-23T06:16:21.571Z,11.93
2023-05-23T06:19:25.369Z,11.10
2023-05-23T06:22:30.686Z,10.63
2023-05-23T06:25:34.455Z,10.53
2023-05-23T06:28:39.806Z,10.57
2023-05-23T06:31:43.516Z,10.70
2023-05-23T06:34:47.167Z,9.27
2023-05-23T06:37:52.164Z,8.87
2023-05-23T06:40:55.718Z,9.93
2023-05-23T06:43:59.340Z,8.63
2023-05-23T06:47:02.858Z,7.57
2023-05-23T06:50:07.689Z,7.77
2023-05-23T06:53:12.771Z,6.20
2023-05-23T06:56:17.299Z,6.93
2023-05-23T06:59:21.555Z,6.80
2023-05-23T07:02:25.814Z,7.03
2023-05-23T07:05:29.675Z,6.23
2023-05-23T07:08:34.957Z,5.70
2023-05-23T07:11:39.586Z,6.83
2023-05-23T07:14:43.124Z,6.10
2023-05-23T07:17:46.787Z,5.03
2023-05-23T07:20:51.161Z,4.13
2023-05-23T07:23:56.099Z,5.03
2023-05-23T07:26:59.657Z,4.70
2023-05-23T07:30:05.257Z,4.50
2023-05-23T07:33:08.863Z,4.20
2023-05-23T07:36:12.824Z,4.40
2023-05-23T07:39:22.165Z,4.40
2023-05-23T07:42:25.757Z,4.60
2023-05-23T07:45:29.532Z,4.00
2023-05-23T07:48:33.181Z,4.20
2023-05-23T07:51:37.204Z,4.97
2023-05-23T07:54:42.777Z,5.30
2023-05-23T07:57:46.481Z,5.60
2023-05-23T08:00:52.484Z,4.40
2023-05-23T08:03:56.688Z,3.83
2023-05-23T08:07:05.647Z,3.73
2023-05-23T08:10:11.936Z,4.10
2023-05-23T08:13:16.601Z,4.07
2023-05-23T08:16:20.441Z,3.13
2023-05-23T08:19:24.208Z,2.97
2023-05-23T08:22:27.970Z,3.67
2023-05-23T08:25:33.283Z,3.50
2023-05-23T08:28:36.884Z,4.03
2023-05-23T08:31:40.488Z,3.93
2023-05-23T08:34:44.296Z,5.33
2023-05-23T08:37:48.182Z,5.07
2023-05-23T08:40:53.580Z,6.10
2023-05-23T08:43:58.154Z,5.17
2023-05-23T08:47:06.661Z,5.23
2023-05-23T08:50:14.666Z,5.50
2023-05-23T08:53:20.520Z,4.97
2023-05-23T08:56:28.627Z,4.50
2023-05-23T08:59:34.827Z,5.30
2023-05-23T09:02:39.407Z,5.43
2023-05-23T09:05:43.999Z,4.43
2023-05-23T09:08:47.848Z,4.00
2023-05-23T09:11:54.613Z,4.70
2023-05-23T09:14:58.749Z,4.00
2023-05-23T09:18:03.406Z,3.87
2023-05-23T09:21:09.178Z,3.07
2023-05-23T09:24:13.378Z,3.40
2023-05-23T09:27:18.385Z,4.03
2023-05-23T09:30:21.979Z,4.63
2023-05-23T09:33:30.885Z,3.47
2023-05-23T09:36:36.681Z,5.30
2023-05-23T09:39:40.390Z,4.80
2023-05-23T09:42:47.738Z,4.30
2023-05-23T09:45:51.412Z,4.20
2023-05-23T09:48:56.219Z,4.83
2023-05-23T09:52:00.868Z,4.37
2023-05-23T09:55:04.969Z,4.60
2023-05-23T09:58:11.190Z,3.87
2023-05-23T10:01:16.020Z,4.60
2023-05-23T10:04:24.410Z,3.30
2023-05-23T10:07:29.879Z,4.43
2023-05-23T10:10:34.353Z,5.07
2023-05-23T10:13:42.625Z,4.03
2023-05-23T10:17:00.439Z,3.23
2023-05-23T10:20:12.581Z,3.83
2023-05-23T10:23:18.053Z,3.33
2023-05-23T10:26:23.027Z,4.27
2023-05-23T10:29:29.666Z,4.30
2023-05-23T10:32:34.716Z,3.67
2023-05-23T10:35:59.991Z,3.83
2023-05-23T10:39:17.673Z,3.10
2023-05-23T10:42:35.257Z,3.07
2023-05-23T10:45:44.467Z,3.47
2023-05-23T10:48:48.903Z,3.47
2023-05-23T10:51:53.227Z,3.07
2023-05-23T10:54:57.060Z,2.97
2023-05-23T10:58:12.978Z,3.30
2023-05-23T11:01:20.011Z,3.87
2023-05-23T11:04:28.159Z,3.90
2023-05-23T11:07:33.535Z,4.73
2023-05-23T11:11:00.665Z,3.87
2023-05-23T11:14:04.249Z,3.43
2023-05-23T11:17:19.721Z,5.00
2023-05-23T11:20:28.339Z,3.23
2023-05-23T11:23:42.649Z,3.37
2023-05-23T11:26:55.456Z,3.80
2023-05-23T11:30:02.037Z,3.53
2023-05-23T11:33:13.841Z,4.10
2023-05-23T11:36:17.470Z,3.10
2023-05-23T11:39:21.668Z,3.40
2023-05-23T11:42:25.750Z,3.33
2023-05-23T11:45:32.364Z,3.83
2023-05-23T11:48:37.401Z,4.40
2023-05-23T11:51:41.212Z,4.10
2023-05-23T11:54:45.219Z,3.67
2023-05-23T11:57:49.597Z,4.07
2023-05-23T12:00:55.202Z,3.97
2023-05-23T12:04:01.050Z,3.70
2023-05-23T12:07:08.466Z,3.57
2023-05-23T12:10:12.635Z,3.30
2023-05-23T12:13:16.389Z,4.13
2023-05-23T12:16:20.067Z,3.10
2023-05-23T12:19:25.269Z,4.17
2023-05-23T12:22:30.119Z,3.70
2023-05-23T12:25:42.047Z,3.17
2023-05-23T12:28:47.270Z,3.00
2023-05-23T12:31:52.724Z,3.88
2023-05-23T12:34:58.089Z,3.17
2023-05-23T12:38:01.921Z,2.97
2023-05-23T12:41:13.520Z,3.43
2023-05-23T12:44:17.964Z,3.60
2023-05-23T12:47:21.990Z,3.03
2023-05-23T12:50:27.500Z,2.93
2023-05-23T12:53:31.564Z,4.10
2023-05-23T12:56:35.241Z,2.97
2023-05-23T12:59:38.802Z,3.27
2023-05-23T13:02:42.777Z,3.37
2023-05-23T13:05:47.778Z,3.50
2023-05-23T13:08:51.619Z,2.73
2023-05-23T13:11:55.826Z,4.00
2023-05-23T13:14:59.618Z,3.57
2023-05-23T13:18:03.369Z,3.03
2023-05-23T13:21:09.397Z,3.57
2023-05-23T13:24:12.866Z,3.80
2023-05-23T13:27:16.434Z,3.20
2023-05-23T13:30:20.468Z,2.90
2023-05-23T13:33:24.314Z,3.93
2023-05-23T13:36:29.563Z,3.97
2023-05-23T13:39:33.317Z,3.43
2023-05-23T13:42:36.921Z,3.27
2023-05-23T13:45:40.814Z,2.77
2023-05-23T13:48:44.680Z,4.00
2023-05-23T13:51:49.991Z,3.67
2023-05-23T13:54:53.712Z,3.40
2023-05-23T13:57:57.392Z,3.30
2023-05-23T14:01:01.072Z,3.30
2023-05-23T14:04:06.853Z,3.00
2023-05-23T14:07:12.346Z,3.70
2023-05-23T14:10:17.498Z,4.07
2023-05-23T14:13:23.166Z,3.10
2023-05-23T14:16:27.561Z,3.07
2023-05-23T14:19:31.551Z,3.00
2023-05-23T14:22:36.846Z,3.87
2023-05-23T14:25:40.848Z,3.10
2023-05-23T14:28:44.635Z,3.60
2023-05-23T14:31:48.229Z,2.27
2023-05-23T14:34:51.962Z,3.07
2023-05-23T14:37:56.889Z,2.97
2023-05-23T14:41:00.456Z,3.43
2023-05-23T14:44:05.128Z,3.27
2023-05-23T14:47:08.789Z,3.00
2023-05-23T14:50:13.110Z,2.50
2023-05-23T14:53:21.897Z,3.20
2023-05-23T14:56:27.319Z,2.87
2023-05-23T14:59:31.935Z,3.40
2023-05-23T15:02:35.554Z,2.63
2023-05-23T15:05:39.276Z,2.87
2023-05-23T15:08:44.262Z,3.13
2023-05-23T15:11:49.420Z,3.47
2023-05-23T15:14:52.993Z,3.80
2023-05-23T15:17:56.644Z,3.50
2023-05-23T15:21:00.406Z,2.73
2023-05-23T15:24:05.752Z,3.03
2023-05-23T15:27:20.324Z,3.20
2023-05-23T15:30:25.075Z,3.27
2023-05-23T15:33:28.599Z,2.63
2023-05-23T15:36:32.417Z,2.73
2023-05-23T15:39:37.257Z,3.63
2023-05-23T15:42:40.800Z,2.63
2023-05-23T15:45:44.496Z,2.40
2023-05-23T15:48:48.147Z,3.13
2023-05-23T15:51:52.606Z,2.77
2023-05-23T15:54:58.186Z,2.47
2023-05-23T15:58:01.853Z,3.03
2023-05-23T16:01:06.521Z,2.63
2023-05-23T16:04:11.730Z,3.13
2023-05-23T16:07:18.188Z,3.40
2023-05-23T16:10:24.550Z,2.60
2023-05-23T16:13:28.196Z,3.00
2023-05-23T16:16:31.793Z,3.73
2023-05-23T16:19:35.625Z,3.60
2023-05-23T16:22:39.337Z,3.13
2023-05-23T16:25:44.369Z,2.87
2023-05-23T16:28:48.008Z,3.33
2023-05-23T16:31:51.829Z,2.07
2023-05-23T16:34:55.572Z,2.73
2023-05-23T16:37:59.177Z,2.67
2023-05-23T16:41:04.322Z,2.50
2023-05-23T16:44:07.987Z,3.77
2023-05-23T16:47:11.608Z,2.63
2023-05-23T16:50:15.311Z,3.33
2023-05-23T16:53:18.900Z,2.93
2023-05-23T16:56:23.809Z,2.50
2023-05-23T16:59:27.462Z,2.93
2023-05-23T17:02:31.179Z,2.53
2023-05-23T17:05:35.140Z,2.60
2023-05-23T17:08:38.702Z,2.47
2023-05-23T17:11:43.592Z,2.70
2023-05-23T17:14:48.980Z,3.00
2023-05-23T17:17:52.579Z,2.90
2023-05-23T17:20:56.137Z,2.77
2023-05-23T17:23:59.821Z,2.47
2023-05-23T17:27:05.387Z,2.47
2023-05-23T17:30:13.161Z,2.67
2023-05-23T17:33:16.769Z,3.20
2023-05-23T17:36:20.782Z,2.83
2023-05-23T17:39:24.373Z,3.03
2023-05-23T17:42:29.279Z,2.87
2023-05-23T17:45:32.853Z,2.90
2023-05-23T17:48:47.065Z,2.60
2023-05-23T17:51:51.778Z,3.30
2023-05-23T17:54:55.899Z,2.33
2023-05-23T17:58:01.237Z,3.07
2023-05-23T18:01:04.947Z,2.97
2023-05-23T18:04:09.284Z,2.50
2023-05-23T18:07:14.038Z,2.97
2023-05-23T18:10:17.969Z,3.23
2023-05-23T18:13:23.069Z,3.07
2023-05-23T18:16:26.709Z,3.13
2023-05-23T18:19:31.271Z,2.60
2023-05-23T18:22:34.897Z,2.80
2023-05-23T18:25:38.460Z,3.47
2023-05-23T18:28:43.526Z,3.03
2023-05-23T18:31:48.421Z,3.63
2023-05-23T18:34:52.176Z,3.40
2023-05-23T18:37:56.071Z,3.27
2023-05-23T18:40:59.773Z,3.10
2023-05-23T18:44:06.128Z,2.97
2023-05-23T18:47:09.787Z,3.47
2023-05-23T18:50:14.559Z,3.40
2023-05-23T18:53:18.188Z,3.03
2023-05-23T18:56:23.137Z,3.23
2023-05-23T18:59:28.595Z,3.90
2023-05-23T19:02:32.324Z,3.30
2023-05-23T19:05:36.720Z,3.50
2023-05-23T19:08:40.317Z,4.20
2023-05-23T19:11:43.925Z,2.90
2023-05-23T19:14:49.052Z,3.97
2023-05-23T19:17:52.834Z,4.30
2023-05-23T19:20:56.581Z,3.10
2023-05-23T19:24:00.135Z,2.83
2023-05-23T19:27:04.790Z,4.23
2023-05-23T19:30:11.789Z,3.67
2023-05-23T19:33:15.885Z,4.13
2023-05-23T19:36:19.476Z,2.90
2023-05-23T19:39:23.237Z,3.17
2023-05-23T19:42:27.048Z,3.10
2023-05-23T19:45:32.112Z,3.07
2023-05-23T19:48:35.652Z,3.53
2023-05-23T19:51:39.301Z,3.33
2023-05-23T19:54:42.818Z,3.20
2023-05-23T19:57:46.986Z,3.57
2023-05-23T20:00:52.561Z,3.60
2023-05-23T20:03:56.468Z,3.30
2023-05-23T20:07:00.916Z,4.87
2023-05-23T20:10:05.082Z,4.50
2023-05-23T20:13:08.580Z,3.57
2023-05-23T20:16:14.105Z,3.67
2023-05-23T20:19:17.815Z,3.93
2023-05-23T20:22:21.438Z,3.77
2023-05-23T20:25:28.732Z,4.13
2023-05-23T20:28:32.841Z,3.50
2023-05-23T20:31:38.070Z,3.83
2023-05-23T20:34:42.208Z,3.77
2023-05-23T20:37:45.881Z,3.37
2023-05-23T20:40:51.576Z,3.20
2023-05-23T20:43:55.877Z,3.40
2023-05-23T20:47:00.888Z,3.67
2023-05-23T20:50:04.682Z,4.10
2023-05-23T20:53:08.722Z,3.57
2023-05-23T20:56:12.475Z,3.83
2023-05-23T20:59:16.552Z,3.63
2023-05-23T21:02:21.631Z,4.57
2023-05-23T21:05:25.292Z,3.87
2023-05-23T21:08:28.872Z,3.53
2023-05-23T21:11:32.434Z,4.10
2023-05-23T21:14:36.223Z,3.87
2023-05-23T21:17:41.611Z,4.53
2023-05-23T21:20:45.473Z,4.57
2023-05-23T21:23:49.019Z,3.37
2023-05-23T21:26:52.690Z,4.00
2023-05-23T21:29:57.368Z,4.40
2023-05-23T21:33:02.475Z,4.27
2023-05-23T21:36:06.225Z,4.00
2023-05-23T21:39:09.743Z,4.93
2023-05-23T21:42:13.362Z,5.10
2023-05-23T21:45:16.904Z,4.40
2023-05-23T21:48:21.766Z,4.63
2023-05-23T21:51:25.657Z,5.30
2023-05-23T21:54:29.473Z,4.63
2023-05-23T21:57:33.054Z,4.03
2023-05-23T22:00:36.546Z,4.77
2023-05-23T22:03:41.534Z,4.77
2023-05-23T22:06:45.167Z,5.13
2023-05-23T22:09:51.116Z,5.10
2023-05-23T22:12:54.653Z,4.70
2023-05-23T22:15:58.146Z,4.53
2023-05-23T22:19:05.528Z,5.27
2023-05-23T22:22:09.891Z,4.80
2023-05-23T22:25:13.629Z,5.10
2023-05-23T22:28:17.252Z,5.53
2023-05-23T22:31:21.580Z,5.60
2023-05-23T22:34:26.560Z,5.97
2023-05-23T22:37:30.068Z,5.53
2023-05-23T22:40:33.617Z,5.80
2023-05-23T22:43:37.315Z,5.07
2023-05-23T22:46:43.802Z,5.23
2023-05-23T22:49:48.894Z,5.57
2023-05-23T22:52:52.505Z,5.03
2023-05-23T22:55:56.154Z,5.27
2023-05-23T22:58:59.669Z,5.07
2023-05-23T23:02:04.043Z,5.33
2023-05-23T23:05:12.111Z,5.17
2023-05-23T23:08:16.318Z,5.17
2023-05-23T23:11:19.905Z,6.97
2023-05-23T23:14:23.469Z,5.30
2023-05-23T23:17:27.048Z,5.20
2023-05-23T23:20:32.150Z,5.30
2023-05-23T23:23:36.678Z,5.60
2023-05-23T23:26:40.236Z,6.23
2023-05-23T23:29:43.722Z,6.67
2023-05-23T23:32:47.322Z,5.40
2023-05-23T23:35:52.500Z,5.37
2023-05-23T23:38:56.079Z,5.93
2023-05-23T23:41:59.559Z,4.80
2023-05-23T23:45:03.401Z,5.87
2023-05-23T23:48:07.013Z,6.03
2023-05-23T23:51:12.934Z,5.20
2023-05-23T23:54:16.555Z,6.60
2023-05-23T23:57:20.051Z,5.70
